createdAt,value
2023-05-19T00:02:35.146Z,101054.31
2023-05-19T00:05:46.310Z,101059.53
2023-05-19T00:08:48.842Z,101055.84
2023-05-19T00:11:51.616Z,101059.41
2023-05-19T00:14:54.444Z,101063.63
2023-05-19T00:17:57.140Z,101061.94
2023-05-19T00:20:59.752Z,101061.06
2023-05-19T00:24:02.162Z,101056.69
2023-05-19T00:27:04.919Z,101050.66
2023-05-19T00:30:08.666Z,101052.22
2023-05-19T00:33:11.134Z,101050.22
2023-05-19T00:36:13.741Z,101045.69
2023-05-19T00:39:16.388Z,101032.63
2023-05-19T00:42:18.958Z,101022.06
2023-05-19T00:45:21.427Z,101027.38
2023-05-19T00:48:26.257Z,101031.59
2023-05-19T00:51:29.759Z,101027.22
2023-05-19T00:54:34.714Z,101019.97
2023-05-19T00:57:37.809Z,101037.72
2023-05-19T01:00:40.766Z,101024.41
2023-05-19T01:03:43.321Z,101034.00
2023-05-19T01:06:58.089Z,101032.22
2023-05-19T01:10:01.062Z,101023.50
2023-05-19T01:13:04.492Z,101039.31
2023-05-19T01:16:59.369Z,101032.72
2023-05-19T01:20:11.088Z,101036.09
2023-05-19T01:23:38.678Z,101041.31
2023-05-19T01:27:14.129Z,101034.44
2023-05-19T01:30:38.226Z,101037.25
2023-05-19T01:33:41.477Z,101035.56
2023-05-19T01:36:45.002Z,101036.19
2023-05-19T01:39:48.581Z,101025.91
2023-05-19T01:42:52.782Z,101029.94
2023-05-19T01:45:55.764Z,101030.81
2023-05-19T01:48:58.322Z,101036.09
2023-05-19T01:52:00.892Z,101028.38
2023-05-19T01:55:03.259Z,101021.09
2023-05-19T01:58:23.548Z,101025.56
2023-05-19T02:01:36.046Z,101033.06
2023-05-19T02:04:45.208Z,101042.50
2023-05-19T02:07:53.082Z,101044.03
2023-05-19T02:11:03.364Z,101040.94
2023-05-19T02:14:27.043Z,101028.09
2023-05-19T02:17:29.697Z,101035.91
2023-05-19T02:20:32.559Z,101038.47
2023-05-19T02:23:35.421Z,101030.72
2023-05-19T02:26:38.080Z,101020.94
2023-05-19T02:29:40.527Z,101026.41
2023-05-19T02:32:47.021Z,101022.06
2023-05-19T02:35:49.665Z,101021.81
2023-05-19T02:38:52.455Z,101010.31
2023-05-19T02:41:55.103Z,101026.75
2023-05-19T02:44:57.556Z,101021.75
2023-05-19T02:48:00.123Z,101022.97
2023-05-19T02:51:02.539Z,101019.41
2023-05-19T02:54:05.325Z,101013.44
2023-05-19T02:57:10.290Z,101020.72
2023-05-19T03:00:13.291Z,101013.81
2023-05-19T03:03:16.123Z,101015.47
2023-05-19T03:06:19.001Z,101026.13
2023-05-19T03:09:21.598Z,101029.44
2023-05-19T03:12:24.716Z,101030.44
2023-05-19T03:15:27.353Z,101043.59
2023-05-19T03:18:29.968Z,101041.94
2023-05-19T03:21:34.734Z,101041.31
2023-05-19T03:24:37.348Z,101045.78
2023-05-19T03:27:39.898Z,101033.16
2023-05-19T03:30:42.423Z,101047.84
2023-05-19T03:33:49.622Z,101048.19
2023-05-19T03:36:52.016Z,101043.94
2023-05-19T03:39:57.557Z,101044.78
2023-05-19T03:43:01.159Z,101045.16
2023-05-19T03:46:03.820Z,101034.91
2023-05-19T03:49:38.466Z,101040.50
2023-05-19T03:52:53.748Z,101034.06
2023-05-19T03:56:14.109Z,101037.53
2023-05-19T03:59:16.858Z,101042.09
2023-05-19T04:02:19.462Z,101043.50
2023-05-19T04:05:23.725Z,101050.00
2023-05-19T04:08:26.322Z,101037.47
2023-05-19T04:11:31.104Z,101057.16
2023-05-19T04:14:33.980Z,101058.94
2023-05-19T04:17:36.461Z,101057.47
2023-05-19T04:20:39.527Z,101058.47
2023-05-19T04:23:44.317Z,101067.41
2023-05-19T04:26:47.439Z,101067.41
2023-05-19T04:29:52.989Z,101063.94
2023-05-19T04:32:58.208Z,101059.84
2023-05-19T04:36:08.572Z,101056.22
2023-05-19T04:39:12.407Z,101074.03
2023-05-19T04:42:19.520Z,101072.41
2023-05-19T04:45:25.918Z,101071.06
2023-05-19T04:48:31.101Z,101079.34
2023-05-19T04:51:33.529Z,101084.91
2023-05-19T04:54:38.636Z,101080.75
2023-05-19T04:57:42.449Z,101082.59
2023-05-19T05:00:45.556Z,101082.09
2023-05-19T05:03:48.164Z,101082.69
2023-05-19T05:06:51.497Z,101085.28
2023-05-19T05:09:54.732Z,101077.25
2023-05-19T05:12:57.741Z,101084.41
2023-05-19T05:16:00.817Z,101083.63
2023-05-19T05:19:04.462Z,101088.81
2023-05-19T05:22:08.672Z,101087.06
2023-05-19T05:25:16.365Z,101092.22
2023-05-19T05:28:19.379Z,101097.72
2023-05-19T05:31:23.054Z,101094.56
2023-05-19T05:34:25.845Z,101087.53
2023-05-19T05:37:28.398Z,101094.56
2023-05-19T05:40:31.213Z,101098.22
2023-05-19T05:43:33.688Z,101101.47
2023-05-19T05:46:39.177Z,101098.84
2023-05-19T05:49:42.271Z,101091.69
2023-05-19T05:52:49.364Z,101092.69
2023-05-19T05:55:53.680Z,101102.06
2023-05-19T05:58:59.191Z,101098.59
2023-05-19T06:02:01.979Z,101085.91
2023-05-19T06:05:05.935Z,101092.81
2023-05-19T06:08:08.857Z,101094.03
2023-05-19T06:11:12.181Z,101099.50
2023-05-19T06:14:16.379Z,101106.34
2023-05-19T06:17:39.423Z,101105.34
2023-05-19T06:20:42.375Z,101107.31
2023-05-19T06:23:44.923Z,101111.06
2023-05-19T06:26:47.950Z,101122.13
2023-05-19T06:29:52.305Z,101121.66
2023-05-19T06:32:55.667Z,101122.69
2023-05-19T06:35:59.492Z,101122.66
2023-05-19T06:39:04.086Z,101132.59
2023-05-19T06:42:08.073Z,101141.13
2023-05-19T06:45:30.869Z,101132.53
2023-05-19T06:48:37.474Z,101136.09
2023-05-19T06:51:40.322Z,101131.06
2023-05-19T06:54:42.885Z,101145.19
2023-05-19T06:57:46.631Z,101143.88
2023-05-19T07:00:50.761Z,101140.78
2023-05-19T07:03:53.752Z,101135.84
2023-05-19T07:06:57.643Z,101133.47
2023-05-19T07:10:02.546Z,101132.94
2023-05-19T07:13:08.366Z,101131.25
2023-05-19T07:16:12.345Z,101127.78
2023-05-19T07:19:15.329Z,101123.28
2023-05-19T07:22:20.879Z,101116.09
2023-05-19T07:25:24.011Z,101108.97
2023-05-19T07:28:26.616Z,101112.56
2023-05-19T07:31:29.470Z,101103.94
2023-05-19T07:34:32.238Z,101103.25
2023-05-19T07:37:34.879Z,101096.19
2023-05-19T07:40:37.443Z,101109.56
2023-05-19T07:43:40.181Z,101111.53
2023-05-19T07:46:42.887Z,101104.53
2023-05-19T07:49:45.755Z,101107.31
2023-05-19T07:52:51.820Z,101112.59
2023-05-19T07:55:55.871Z,101110.88
2023-05-19T07:58:59.523Z,101103.81
2023-05-19T08:02:02.110Z,101106.47
2023-05-19T08:05:04.994Z,101101.94
2023-05-19T08:08:07.566Z,101104.47
2023-05-19T08:11:10.525Z,101104.25
2023-05-19T08:14:14.580Z,101096.69
2023-05-19T08:17:17.311Z,101101.13
2023-05-19T08:20:20.575Z,101098.50
2023-05-19T08:23:23.519Z,101098.47
2023-05-19T08:26:26.483Z,101090.53
2023-05-19T08:29:33.798Z,101094.94
2023-05-19T08:32:39.138Z,101101.09
2023-05-19T08:35:41.596Z,101097.38
2023-05-19T08:38:44.233Z,101090.22
2023-05-19T08:41:47.657Z,101089.09
2023-05-19T08:44:50.423Z,101089.78
2023-05-19T08:47:52.983Z,101078.13
2023-05-19T08:51:22.345Z,101077.00
2023-05-19T08:54:26.734Z,101074.19
2023-05-19T08:57:29.378Z,101081.84
2023-05-19T09:00:32.582Z,101077.34
2023-05-19T09:03:42.455Z,101069.84
2023-05-19T09:06:45.709Z,101075.72
2023-05-19T09:09:48.498Z,101071.31
2023-05-19T09:12:52.293Z,101076.47
2023-05-19T09:15:54.856Z,101077.78
2023-05-19T09:18:57.801Z,101069.81
2023-05-19T09:22:03.965Z,101080.44
2023-05-19T09:25:06.760Z,101071.28
2023-05-19T09:28:10.581Z,101073.03
2023-05-19T09:31:15.134Z,101071.41
2023-05-19T09:34:17.832Z,101082.06
2023-05-19T09:37:24.238Z,101066.94
2023-05-19T09:40:28.473Z,101070.59
2023-05-19T09:43:32.877Z,101060.13
2023-05-19T09:46:36.763Z,101062.91
2023-05-19T09:49:40.085Z,101068.16
2023-05-19T09:52:45.688Z,101061.69
2023-05-19T09:55:48.767Z,101047.72
2023-05-19T09:58:51.813Z,101049.47
2023-05-19T10:01:58.856Z,101049.38
2023-05-19T10:05:01.698Z,101039.38
2023-05-19T10:08:07.437Z,101047.34
2023-05-19T10:11:10.606Z,101035.38
2023-05-19T10:14:13.374Z,101041.06
2023-05-19T10:17:16.475Z,101034.44
2023-05-19T10:20:24.939Z,101030.22
2023-05-19T10:23:30.984Z,101035.81
2023-05-19T10:26:33.997Z,101026.81
2023-05-19T10:29:38.348Z,101014.50
2023-05-19T10:32:44.894Z,101025.69
2023-05-19T10:35:57.404Z,101017.72
2023-05-19T10:39:08.167Z,101022.28
2023-05-19T10:42:19.645Z,101023.69
2023-05-19T10:45:26.047Z,101013.59
2023-05-19T10:48:28.957Z,101009.66
2023-05-19T10:51:32.570Z,101003.53
2023-05-19T10:54:41.362Z,101006.84
2023-05-19T10:57:59.142Z,101011.09
2023-05-19T11:01:02.420Z,100998.59
2023-05-19T11:04:14.207Z,100999.13
2023-05-19T11:07:21.221Z,100993.94
2023-05-19T11:10:24.351Z,100978.88
2023-05-19T11:13:28.474Z,100988.63
2023-05-19T11:16:33.994Z,100983.53
2023-05-19T11:19:37.664Z,100992.41
2023-05-19T11:22:42.749Z,100987.56
2023-05-19T11:25:49.663Z,100986.78
2023-05-19T11:28:52.260Z,100986.03
2023-05-19T11:31:54.742Z,100976.25
2023-05-19T11:34:58.195Z,100984.81
2023-05-19T11:38:00.820Z,100981.09
2023-05-19T11:41:03.628Z,100979.91
2023-05-19T11:44:13.237Z,100978.84
2023-05-19T11:47:17.130Z,100965.63
2023-05-19T11:50:21.044Z,100969.25
2023-05-19T11:53:23.515Z,100977.16
2023-05-19T11:56:26.431Z,100973.50
2023-05-19T11:59:35.996Z,100971.69
2023-05-19T12:02:39.086Z,100970.31
2023-05-19T12:05:47.852Z,100975.91
2023-05-19T12:08:52.063Z,100968.59
2023-05-19T12:11:55.081Z,100961.97
2023-05-19T12:14:58.355Z,100956.88
2023-05-19T12:18:01.823Z,100954.38
2023-05-19T12:21:05.270Z,100942.94
2023-05-19T12:24:07.943Z,100938.97
2023-05-19T12:27:11.381Z,100943.09
2023-05-19T12:30:14.056Z,100939.38
2023-05-19T12:33:16.764Z,100931.44
2023-05-19T12:36:19.622Z,100934.91
2023-05-19T12:39:23.363Z,100925.06
2023-05-19T12:42:32.461Z,100920.94
2023-05-19T12:45:36.232Z,100923.53
2023-05-19T12:48:44.031Z,100911.06
2023-05-19T12:51:55.674Z,100922.25
2023-05-19T12:55:08.446Z,100920.91
2023-05-19T12:58:12.040Z,100910.84
2023-05-19T13:01:18.266Z,100900.94
2023-05-19T13:04:20.906Z,100904.81
2023-05-19T13:07:24.310Z,100905.63
2023-05-19T13:10:27.786Z,100900.13
2023-05-19T13:13:30.442Z,100902.78
2023-05-19T13:16:33.078Z,100898.16
2023-05-19T13:19:35.714Z,100891.66
2023-05-19T13:22:38.657Z,100887.44
2023-05-19T13:25:41.662Z,100882.84
2023-05-19T13:28:44.117Z,100887.59
2023-05-19T13:31:47.107Z,100878.88
2023-05-19T13:34:50.243Z,100882.50
2023-05-19T13:37:52.741Z,100869.28
2023-05-19T13:40:55.226Z,100861.50
2023-05-19T13:43:59.293Z,100857.25
2023-05-19T13:47:01.866Z,100860.97
2023-05-19T13:50:04.973Z,100852.41
2023-05-19T13:53:08.402Z,100857.50
2023-05-19T13:56:11.180Z,100854.84
2023-05-19T13:59:13.666Z,100852.41
2023-05-19T14:02:18.390Z,100846.69
2023-05-19T14:05:22.476Z,100842.56
2023-05-19T14:08:25.019Z,100845.25
2023-05-19T14:11:27.634Z,100844.63
2023-05-19T14:14:30.050Z,100849.09
2023-05-19T14:17:32.824Z,100856.91
2023-05-19T14:20:36.100Z,100841.63
2023-05-19T14:23:38.993Z,100842.94
2023-05-19T14:26:41.925Z,100847.44
2023-05-19T14:29:44.449Z,100841.22
2023-05-19T14:32:47.016Z,100844.38
2023-05-19T14:35:50.091Z,100838.16
2023-05-19T14:38:52.729Z,100834.56
2023-05-19T14:41:56.382Z,100835.16
2023-05-19T14:44:59.082Z,100843.25
2023-05-19T14:48:01.917Z,100845.38
2023-05-19T14:51:05.028Z,100829.38
2023-05-19T14:54:08.267Z,100839.13
2023-05-19T14:57:11.021Z,100831.78
2023-05-19T15:00:17.799Z,100824.44
2023-05-19T15:03:37.202Z,100837.59
2023-05-19T15:06:42.325Z,100832.03
2023-05-19T15:09:57.217Z,100826.47
2023-05-19T15:13:24.927Z,100823.06
2023-05-19T15:16:47.397Z,100808.69
2023-05-19T15:19:49.842Z,100824.53
2023-05-19T15:22:52.311Z,100818.84
2023-05-19T15:25:55.643Z,100823.94
2023-05-19T15:28:58.174Z,100824.84
2023-05-19T15:32:01.126Z,100817.06
2023-05-19T15:35:03.852Z,100822.56
2023-05-19T15:38:07.000Z,100825.78
2023-05-19T15:41:10.152Z,100829.06
2023-05-19T15:44:12.925Z,100828.34
2023-05-19T15:47:15.789Z,100824.38
2023-05-19T15:50:18.456Z,100832.25
2023-05-19T15:53:21.112Z,100827.97
2023-05-19T15:56:26.108Z,100817.88
2023-05-19T15:59:28.600Z,100828.44
2023-05-19T16:02:32.364Z,100822.56
2023-05-19T16:05:35.232Z,100819.44
2023-05-19T16:08:38.422Z,100835.97
2023-05-19T16:11:41.082Z,100826.66
2023-05-19T16:14:43.744Z,100833.63
2023-05-19T16:17:46.417Z,100833.03
2023-05-19T16:20:51.345Z,100834.03
2023-05-19T16:23:55.471Z,100829.56
2023-05-19T16:26:58.068Z,100830.19
2023-05-19T16:30:01.254Z,100829.13
2023-05-19T16:33:04.462Z,100835.16
2023-05-19T16:36:07.085Z,100837.00
2023-05-19T16:39:09.813Z,100829.00
2023-05-19T16:42:12.690Z,100837.06
2023-05-19T16:45:18.090Z,100847.00
2023-05-19T16:48:20.864Z,100832.53
2023-05-19T16:51:23.418Z,100832.09
2023-05-19T16:54:26.128Z,100834.38
2023-05-19T16:57:29.019Z,100830.97
2023-05-19T17:00:31.891Z,100827.50
2023-05-19T17:03:35.907Z,100839.19
2023-05-19T17:06:38.375Z,100835.84
2023-05-19T17:09:40.926Z,100841.69
2023-05-19T17:12:43.253Z,100826.94
2023-05-19T17:15:45.659Z,100826.97
2023-05-19T17:18:48.303Z,100826.63
2023-05-19T17:21:51.761Z,100835.63
2023-05-19T17:24:54.303Z,100833.88
2023-05-19T17:27:57.348Z,100826.22
2023-05-19T17:31:00.124Z,100845.81
2023-05-19T17:34:02.697Z,100840.53
2023-05-19T17:37:05.279Z,100844.31
2023-05-19T17:40:08.341Z,100846.09
2023-05-19T17:43:11.111Z,100852.44
2023-05-19T17:46:13.739Z,100856.22
2023-05-19T17:49:16.260Z,100854.50
2023-05-19T17:52:22.377Z,100853.66
2023-05-19T17:55:29.923Z,100854.63
2023-05-19T17:58:32.862Z,100851.16
2023-05-19T18:01:37.112Z,100854.81
2023-05-19T18:04:40.116Z,100846.94
2023-05-19T18:07:42.839Z,100847.88
2023-05-19T18:10:46.257Z,100848.81
2023-05-19T18:13:49.073Z,100852.44
2023-05-19T18:16:51.683Z,100853.38
2023-05-19T18:19:54.783Z,100851.66
2023-05-19T18:22:57.826Z,100861.41
2023-05-19T18:26:00.623Z,100857.03
2023-05-19T18:29:04.971Z,100857.06
2023-05-19T18:32:07.909Z,100850.84
2023-05-19T18:35:10.823Z,100851.75
2023-05-19T18:38:13.256Z,100857.94
2023-05-19T18:41:16.459Z,100861.47
2023-05-19T18:44:18.988Z,100865.88
2023-05-19T18:47:23.107Z,100868.50
2023-05-19T18:50:25.802Z,100872.00
2023-05-19T18:53:28.375Z,100872.00
2023-05-19T18:56:33.547Z,100867.53
2023-05-19T18:59:36.464Z,100869.25
2023-05-19T19:02:39.066Z,100871.03
2023-05-19T19:05:41.496Z,100875.41
2023-05-19T19:08:44.479Z,100868.34
2023-05-19T19:11:46.959Z,100878.00
2023-05-19T19:14:49.411Z,100881.53
2023-05-19T19:17:52.207Z,100886.81
2023-05-19T19:20:56.790Z,100891.19
2023-05-19T19:23:59.365Z,100880.59
2023-05-19T19:27:01.907Z,100892.06
2023-05-19T19:30:04.761Z,100882.31
2023-05-19T19:33:07.268Z,100890.25
2023-05-19T19:36:11.400Z,100899.94
2023-05-19T19:39:14.356Z,100907.88
2023-05-19T19:42:18.876Z,100903.47
2023-05-19T19:45:21.470Z,100901.69
2023-05-19T19:48:24.006Z,100901.72
2023-05-19T19:51:27.404Z,100902.59
2023-05-19T19:54:30.094Z,100897.25
2023-05-19T19:57:34.366Z,100907.88
2023-05-19T20:00:37.273Z,100906.13
2023-05-19T20:03:39.908Z,100903.47
2023-05-19T20:06:42.331Z,100917.63
2023-05-19T20:09:45.427Z,100914.97
2023-05-19T20:12:48.025Z,100918.50
2023-05-19T20:16:03.771Z,100915.03
2023-05-19T20:19:07.805Z,100907.97
2023-05-19T20:22:11.885Z,100914.06
2023-05-19T20:25:14.855Z,100904.34
2023-05-19T20:28:17.218Z,100906.16
2023-05-19T20:31:21.568Z,100903.47
2023-05-19T20:34:24.181Z,100906.16
2023-05-19T20:37:26.792Z,100907.00
2023-05-19T20:40:30.329Z,100904.41
2023-05-19T20:43:36.183Z,100915.03
2023-05-19T20:46:38.754Z,100909.69
2023-05-19T20:49:41.353Z,100906.13
2023-05-19T20:52:45.866Z,100916.75
2023-05-19T20:55:48.824Z,100910.63
2023-05-19T20:58:51.368Z,100910.59
2023-05-19T21:01:53.890Z,100909.72
2023-05-19T21:04:56.694Z,100908.81
2023-05-19T21:07:59.240Z,100901.75
2023-05-19T21:11:01.676Z,100900.84
2023-05-19T21:14:04.361Z,100899.03
2023-05-19T21:17:08.418Z,100899.00
2023-05-19T21:20:11.424Z,100906.03
2023-05-19T21:23:13.885Z,100902.53
2023-05-19T21:26:16.596Z,100898.94
2023-05-19T21:29:19.267Z,100912.13
2023-05-19T21:32:21.843Z,100912.03
2023-05-19T21:35:24.451Z,100902.31
2023-05-19T21:38:27.329Z,100900.56
2023-05-19T21:41:31.210Z,100896.13
2023-05-19T21:44:33.838Z,100894.38
2023-05-19T21:47:36.513Z,100896.13
2023-05-19T21:50:39.225Z,100894.34
2023-05-19T21:53:41.890Z,100893.44
2023-05-19T21:56:44.380Z,100889.81
2023-05-19T21:59:46.887Z,100884.50
2023-05-19T22:02:49.736Z,100890.66
2023-05-19T22:05:53.118Z,100887.13
2023-05-19T22:08:55.651Z,100888.84
2023-05-19T22:11:58.219Z,100884.34
2023-05-19T22:15:00.924Z,100894.91
2023-05-19T22:18:03.426Z,100885.22
2023-05-19T22:21:06.425Z,100877.28
2023-05-19T22:24:08.884Z,100871.97
2023-05-19T22:27:11.774Z,100872.97
2023-05-19T22:30:14.247Z,100866.84
2023-05-19T22:33:16.821Z,100852.72
2023-05-19T22:36:19.335Z,100862.41
2023-05-19T22:39:22.205Z,100856.13
2023-05-19T22:42:24.683Z,100867.59
2023-05-19T22:45:27.252Z,100869.34
2023-05-19T22:48:29.910Z,100870.19
2023-05-19T22:51:33.577Z,100868.50
2023-05-19T22:54:36.372Z,100853.50
2023-05-19T22:57:39.027Z,100847.31
2023-05-19T23:00:41.502Z,100843.72
2023-05-19T23:03:44.825Z,100841.03
2023-05-19T23:06:47.965Z,100837.47
2023-05-19T23:09:50.553Z,100849.75
2023-05-19T23:12:53.159Z,100852.44
2023-05-19T23:15:55.941Z,100855.06
2023-05-19T23:18:58.356Z,100859.41
2023-05-19T23:22:01.150Z,100848.72
2023-05-19T23:25:07.693Z,100855.59
2023-05-19T23:28:11.369Z,100848.41
2023-05-19T23:31:14.220Z,100846.53
2023-05-19T23:34:16.697Z,100844.66
2023-05-19T23:37:20.443Z,100832.34
2023-05-19T23:40:22.928Z,100838.44
2023-05-19T23:43:25.453Z,100838.34
2023-05-19T23:46:28.100Z,100827.75
2023-05-19T23:49:30.647Z,100830.41
2023-05-19T23:52:33.203Z,100836.47
2023-05-19T23:55:35.906Z,100829.47
2023-05-19T23:58:38.677Z,100831.22
